createdAt,value
2018-11-04T00:01:17.123Z,24.83
2018-11-04T00:03:44.081Z,23.60
2018-11-04T00:06:11.004Z,18.10
2018-11-04T00:08:37.948Z,20.10
2018-11-04T00:11:05.315Z,20.43
2018-11-04T00:13:32.259Z,21.70
2018-11-04T00:15:59.191Z,18.27
2018-11-04T00:18:26.143Z,22.17
2018-11-04T00:20:53.090Z,19.60
2018-11-04T00:23:23.367Z,21.30
2018-11-04T00:25:50.263Z,22.07
2018-11-04T00:28:17.244Z,21.40
2018-11-04T00:30:44.367Z,23.53
2018-11-04T00:33:11.294Z,25.30
2018-11-04T00:35:39.174Z,21.20
2018-11-04T00:38:06.107Z,22.23
2018-11-04T00:40:33.059Z,24.87
2018-11-04T00:42:59.990Z,18.90
2018-11-04T00:45:27.006Z,19.30
2018-11-04T00:47:55.837Z,23.73
2018-11-04T00:50:23.815Z,25.40
2018-11-04T00:52:51.658Z,19.97
2018-11-04T00:55:18.647Z,21.93
2018-11-04T00:57:46.578Z,19.13
2018-11-04T01:00:16.370Z,18.23
2018-11-04T01:02:44.107Z,23.80
2018-11-04T01:05:11.015Z,23.23
2018-11-04T01:07:38.361Z,20.83
2018-11-04T01:10:08.260Z,20.67
2018-11-04T01:12:35.122Z,22.70
2018-11-04T01:15:02.074Z,18.40
2018-11-04T01:17:29.028Z,23.27
2018-11-04T01:19:55.976Z,24.10
2018-11-04T01:22:22.907Z,20.70
2018-11-04T01:24:49.844Z,22.70
2018-11-04T01:27:16.979Z,21.70
2018-11-04T01:29:43.959Z,24.77
2018-11-04T01:32:10.883Z,19.97
2018-11-04T01:34:37.831Z,22.93
2018-11-04T01:37:04.961Z,19.80
2018-11-04T01:39:31.928Z,19.30
2018-11-04T01:41:58.866Z,22.60
2018-11-04T01:44:25.806Z,19.53
2018-11-04T01:46:52.758Z,21.40
2018-11-04T01:49:19.695Z,20.23
2018-11-04T01:51:46.647Z,25.33
2018-11-04T01:54:13.591Z,24.00
2018-11-04T01:56:40.547Z,18.80
2018-11-04T01:59:07.487Z,29.77
2018-11-04T02:01:34.437Z,25.00
2018-11-04T02:04:01.370Z,20.50
2018-11-04T02:06:28.314Z,23.97
2018-11-04T02:08:55.271Z,20.40
2018-11-04T02:11:22.210Z,23.43
2018-11-04T02:13:49.172Z,22.80
2018-11-04T02:16:16.143Z,29.80
2018-11-04T02:18:43.040Z,21.50
2018-11-04T02:21:10.002Z,23.53
2018-11-04T02:23:36.946Z,22.80
2018-11-04T02:26:03.875Z,29.43
2018-11-04T02:28:31.853Z,19.50
2018-11-04T02:30:58.908Z,22.83
2018-11-04T02:33:27.783Z,22.47
2018-11-04T02:35:54.725Z,21.37
2018-11-04T02:38:21.677Z,22.10
2018-11-04T02:40:49.642Z,21.13
2018-11-04T02:43:16.587Z,19.80
2018-11-04T02:45:43.547Z,21.47
2018-11-04T02:48:10.471Z,25.17
2018-11-04T02:50:37.414Z,21.03
2018-11-04T02:53:04.701Z,24.80
2018-11-04T02:55:31.623Z,27.00
2018-11-04T02:57:58.559Z,21.13
2018-11-04T03:00:25.523Z,26.47
2018-11-04T03:02:52.502Z,23.30
2018-11-04T03:05:19.470Z,22.90
2018-11-04T03:07:46.456Z,22.73
2018-11-04T03:10:14.187Z,24.27
2018-11-04T03:12:41.175Z,29.50
2018-11-04T03:15:08.124Z,22.00
2018-11-04T03:17:35.226Z,25.93
2018-11-04T03:20:02.195Z,25.23
2018-11-04T03:22:29.130Z,30.07
2018-11-04T03:24:56.079Z,22.93
2018-11-04T03:27:24.076Z,23.90
2018-11-04T03:29:51.006Z,22.37
2018-11-04T03:32:18.083Z,23.60
2018-11-04T03:34:45.041Z,22.07
2018-11-04T03:37:11.907Z,29.40
2018-11-04T03:39:38.875Z,23.80
2018-11-04T03:42:05.865Z,24.50
2018-11-04T03:44:32.782Z,26.30
2018-11-04T03:46:59.711Z,27.97
2018-11-04T03:49:26.660Z,22.90
2018-11-04T03:51:54.523Z,23.07
2018-11-04T03:54:21.458Z,26.00
2018-11-04T03:56:49.323Z,26.37
2018-11-04T03:59:16.274Z,23.80
2018-11-04T04:01:43.226Z,23.87
2018-11-04T04:04:10.151Z,24.57
2018-11-04T04:06:37.116Z,23.10
2018-11-04T04:09:06.360Z,22.57
2018-11-04T04:11:33.244Z,21.60
2018-11-04T04:14:01.120Z,24.43
2018-11-04T04:16:28.067Z,23.67
2018-11-04T04:18:55.940Z,23.20
2018-11-04T04:21:22.866Z,25.77
2018-11-04T04:23:49.827Z,24.97
2018-11-04T04:26:16.767Z,25.53
2018-11-04T04:28:43.703Z,20.13
2018-11-04T04:31:10.670Z,24.83
2018-11-04T04:33:37.599Z,26.73
2018-11-04T04:36:04.968Z,20.90
2018-11-04T04:38:31.895Z,19.90
2018-11-04T04:40:58.855Z,28.73
2018-11-04T04:43:25.785Z,28.37
2018-11-04T04:45:52.756Z,24.10
2018-11-04T04:48:19.721Z,27.17
2018-11-04T04:50:46.622Z,26.27
2018-11-04T04:53:13.601Z,26.50
2018-11-04T04:55:40.543Z,25.57
2018-11-04T04:58:07.475Z,26.90
2018-11-04T05:00:34.391Z,26.57
2018-11-04T05:03:01.400Z,26.23
2018-11-04T05:05:28.335Z,24.85
2018-11-04T05:07:55.214Z,26.50
2018-11-04T05:10:22.179Z,31.00
2018-11-04T05:12:49.139Z,25.30
2018-11-04T05:15:16.063Z,26.53
2018-11-04T05:17:43.007Z,31.77
2018-11-04T05:20:09.953Z,24.03
2018-11-04T05:22:36.906Z,22.17
2018-11-04T05:25:04.383Z,24.63
2018-11-04T05:27:31.308Z,27.03
2018-11-04T05:29:58.259Z,27.63
2018-11-04T05:32:25.195Z,27.67
2018-11-04T05:34:53.159Z,27.37
2018-11-04T05:37:20.103Z,28.20
2018-11-04T05:39:48.011Z,25.77
2018-11-04T05:42:14.914Z,24.77
2018-11-04T05:44:41.935Z,27.23
2018-11-04T05:47:08.924Z,22.70
2018-11-04T05:49:37.270Z,27.57
2018-11-04T05:52:04.228Z,26.07
2018-11-04T05:54:31.175Z,25.23
2018-11-04T05:56:58.126Z,23.50
2018-11-04T05:59:25.067Z,28.70
2018-11-04T06:01:52.012Z,27.27
2018-11-04T06:04:18.855Z,25.73
2018-11-04T06:06:45.791Z,25.57
2018-11-04T06:09:12.774Z,25.00
2018-11-04T06:11:39.772Z,24.50
2018-11-04T06:14:06.731Z,28.98
2018-11-04T06:16:33.678Z,28.23
2018-11-04T06:19:00.635Z,26.03
2018-11-04T06:21:27.587Z,26.73
2018-11-04T06:23:54.571Z,25.27
2018-11-04T06:26:21.450Z,27.20
2018-11-04T06:28:48.399Z,31.47
2018-11-04T06:31:15.355Z,24.80
2018-11-04T06:33:42.321Z,25.00
2018-11-04T06:36:09.299Z,26.87
2018-11-04T06:38:36.178Z,27.13
2018-11-04T06:41:03.232Z,28.97
2018-11-04T06:43:30.104Z,28.20
2018-11-04T06:45:57.008Z,27.20
2018-11-04T06:48:23.954Z,29.03
2018-11-04T06:50:50.898Z,28.83
2018-11-04T06:53:17.851Z,27.03
2018-11-04T06:55:44.786Z,30.90
2018-11-04T06:58:11.739Z,26.40
2018-11-04T07:00:38.679Z,28.17
2018-11-04T07:03:05.626Z,25.53
2018-11-04T07:05:32.581Z,25.17
2018-11-04T07:07:59.523Z,27.10
2018-11-04T07:10:26.476Z,29.40
2018-11-04T07:12:54.522Z,26.53
2018-11-04T07:15:22.296Z,27.70
2018-11-04T07:17:49.539Z,30.50
2018-11-04T07:20:16.526Z,30.23
2018-11-04T07:22:43.439Z,29.07
2018-11-04T07:25:10.408Z,30.20
2018-11-04T07:27:37.374Z,29.87
2018-11-04T07:30:06.186Z,25.90
2018-11-04T07:32:33.087Z,25.00
2018-11-04T07:35:00.050Z,27.40
2018-11-04T07:37:26.971Z,25.60
2018-11-04T07:39:53.895Z,29.97
2018-11-04T07:42:20.846Z,25.33
2018-11-04T07:44:47.775Z,26.90
2018-11-04T07:47:14.760Z,27.20
2018-11-04T07:49:41.671Z,27.47
2018-11-04T07:52:08.619Z,30.70
2018-11-04T07:54:35.617Z,26.80
2018-11-04T07:57:02.580Z,26.60
2018-11-04T07:59:29.455Z,26.83
2018-11-04T08:01:56.403Z,28.03
2018-11-04T08:04:23.351Z,26.77
2018-11-04T08:06:50.323Z,29.07
2018-11-04T08:09:17.235Z,27.67
2018-11-04T08:11:45.141Z,27.00
2018-11-04T08:14:12.059Z,28.70
2018-11-04T08:16:39.031Z,27.13
2018-11-04T08:19:05.939Z,28.93
2018-11-04T08:21:32.871Z,32.57
2018-11-04T08:23:59.843Z,29.93
2018-11-04T08:26:26.779Z,31.00
2018-11-04T08:28:53.722Z,28.17
2018-11-04T08:31:20.663Z,26.87
2018-11-04T08:33:47.642Z,27.00
2018-11-04T08:36:14.631Z,25.33
2018-11-04T08:38:41.623Z,27.30
2018-11-04T08:41:08.608Z,26.90
2018-11-04T08:43:35.544Z,30.17
2018-11-04T08:46:02.498Z,28.60
2018-11-04T08:48:29.372Z,27.57
2018-11-04T08:50:56.351Z,30.80
2018-11-04T08:53:23.267Z,29.57
2018-11-04T08:55:50.240Z,29.83
2018-11-04T08:58:17.159Z,31.47
2018-11-04T09:00:44.099Z,26.90
2018-11-04T09:03:11.971Z,28.67
2018-11-04T09:05:38.919Z,29.13
2018-11-04T09:08:05.867Z,28.83
2018-11-04T09:10:32.949Z,28.80
2018-11-04T09:12:59.847Z,29.80
2018-11-04T09:15:26.797Z,33.00
2018-11-04T09:17:53.738Z,31.77
2018-11-04T09:20:20.683Z,27.37
2018-11-04T09:22:47.676Z,28.97
2018-11-04T09:25:14.622Z,27.00
2018-11-04T09:27:42.553Z,29.17
2018-11-04T09:30:11.542Z,30.73
2018-11-04T09:32:38.523Z,28.60
2018-11-04T09:35:05.900Z,28.23
2018-11-04T09:37:32.679Z,30.53
2018-11-04T09:39:59.631Z,30.37
2018-11-04T09:42:26.567Z,29.70
2018-11-04T09:44:54.530Z,30.70
2018-11-04T09:47:21.499Z,29.07
2018-11-04T09:49:48.532Z,33.73
2018-11-04T09:52:17.537Z,30.43
2018-11-04T09:54:44.475Z,28.37
2018-11-04T09:57:11.407Z,31.00
2018-11-04T09:59:38.372Z,26.40
2018-11-04T10:02:05.315Z,28.50
2018-11-04T10:04:32.246Z,28.93
2018-11-04T10:06:59.237Z,29.60
2018-11-04T10:09:26.136Z,27.83
2018-11-04T10:11:53.103Z,30.33
2018-11-04T10:14:20.079Z,31.80
2018-11-04T10:16:46.958Z,28.30
2018-11-04T10:19:14.049Z,31.57
2018-11-04T10:21:40.936Z,25.03
2018-11-04T10:24:07.935Z,28.50
2018-11-04T10:26:34.863Z,27.70
2018-11-04T10:29:01.899Z,29.13
2018-11-04T10:31:28.835Z,32.43
2018-11-04T10:33:55.775Z,29.07
2018-11-04T10:36:22.760Z,30.67
2018-11-04T10:38:49.740Z,31.57
2018-11-04T10:41:16.617Z,33.60
2018-11-04T10:43:43.555Z,31.17
2018-11-04T10:46:10.503Z,30.80
2018-11-04T10:48:37.446Z,30.47
2018-11-04T10:51:04.772Z,33.73
2018-11-04T10:53:31.651Z,31.63
2018-11-04T10:55:58.664Z,30.80
2018-11-04T10:58:25.532Z,35.10
2018-11-04T11:00:58.321Z,36.33
2018-11-04T11:03:25.302Z,34.67
2018-11-04T11:05:52.230Z,40.83
2018-11-04T11:08:19.182Z,40.60
2018-11-04T11:10:46.178Z,36.80
2018-11-04T11:13:13.110Z,36.33
2018-11-04T11:15:39.988Z,39.03
2018-11-04T11:18:06.935Z,39.23
2018-11-04T11:20:33.877Z,39.80
2018-11-04T11:23:01.093Z,36.47
2018-11-04T11:25:27.772Z,38.07
2018-11-04T11:27:54.711Z,39.93
2018-11-04T11:30:21.731Z,37.83
2018-11-04T11:32:48.619Z,38.50
2018-11-04T11:35:17.486Z,39.60
2018-11-04T11:37:44.458Z,38.30
2018-11-04T11:40:11.383Z,34.60
2018-11-04T11:42:38.375Z,38.40
2018-11-04T11:45:05.524Z,40.27
2018-11-04T11:47:32.467Z,38.02
2018-11-04T11:49:59.354Z,33.63
2018-11-04T11:52:26.329Z,35.30
2018-11-04T11:54:53.260Z,33.90
2018-11-04T11:57:20.219Z,36.33
2018-11-04T11:59:47.144Z,35.60
2018-11-04T12:02:14.127Z,36.27
2018-11-04T12:04:41.151Z,35.30
2018-11-04T12:07:08.144Z,39.27
2018-11-04T12:09:35.027Z,39.90
2018-11-04T12:12:01.975Z,37.17
2018-11-04T12:14:28.915Z,40.60
2018-11-04T12:16:55.867Z,34.07
2018-11-04T12:19:22.813Z,37.90
2018-11-04T12:21:49.772Z,39.33
2018-11-04T12:24:16.735Z,35.00
2018-11-04T12:26:43.668Z,38.30
2018-11-04T12:29:10.648Z,34.73
2018-11-04T12:31:37.588Z,38.27
2018-11-04T12:34:04.825Z,36.10
2018-11-04T12:36:31.739Z,34.37
2018-11-04T12:38:59.701Z,35.43
2018-11-04T12:41:26.660Z,33.77
2018-11-04T12:43:53.583Z,33.10
2018-11-04T12:46:20.531Z,33.53
2018-11-04T12:48:47.507Z,35.23
2018-11-04T12:51:14.457Z,33.73
2018-11-04T12:53:41.381Z,34.30
2018-11-04T12:56:08.315Z,35.53
2018-11-04T12:58:35.252Z,29.63
2018-11-04T13:01:02.201Z,29.80
2018-11-04T13:03:29.139Z,31.17
2018-11-04T13:05:56.143Z,28.37
2018-11-04T13:08:23.047Z,27.30
2018-11-04T13:10:49.969Z,28.60
2018-11-04T13:13:16.866Z,28.60
2018-11-04T13:15:43.795Z,26.63
2018-11-04T13:18:10.746Z,27.52
2018-11-04T13:20:37.685Z,27.70
2018-11-04T13:23:04.678Z,28.73
2018-11-04T13:25:31.590Z,29.70
2018-11-04T13:27:59.434Z,29.47
2018-11-04T13:30:26.374Z,26.97
2018-11-04T13:32:53.223Z,26.20
2018-11-04T13:35:20.206Z,26.80
2018-11-04T13:37:47.121Z,29.47
2018-11-04T13:40:14.063Z,28.30
2018-11-04T13:42:41.516Z,25.40
2018-11-04T13:45:09.077Z,26.00
2018-11-04T13:47:36.118Z,27.70
2018-11-04T13:50:03.282Z,25.97
2018-11-04T13:52:30.215Z,25.80
2018-11-04T13:54:57.075Z,25.50
2018-11-04T13:57:24.019Z,25.53
2018-11-04T13:59:50.966Z,25.00
2018-11-04T14:02:17.971Z,28.90
2018-11-04T14:04:44.834Z,23.27
2018-11-04T14:07:11.699Z,24.07
2018-11-04T14:09:38.628Z,26.40
2018-11-04T14:12:05.459Z,21.83
2018-11-04T14:14:32.331Z,22.17
2018-11-04T14:16:59.255Z,19.80
2018-11-04T14:19:26.214Z,20.83
2018-11-04T14:21:53.142Z,21.00
2018-11-04T14:24:20.088Z,23.33
2018-11-04T14:26:46.951Z,22.03
2018-11-04T14:29:13.883Z,20.53
2018-11-04T14:31:40.817Z,17.63
2018-11-04T14:34:07.694Z,21.20
2018-11-04T14:36:34.606Z,21.50
2018-11-04T14:39:01.467Z,19.73
2018-11-04T14:41:28.394Z,22.77
2018-11-04T14:43:55.344Z,22.13
2018-11-04T14:46:22.283Z,24.60
2018-11-04T14:48:49.150Z,21.27
2018-11-04T14:51:16.075Z,22.30
2018-11-04T14:53:43.023Z,23.23
2018-11-04T14:56:09.962Z,22.93
2018-11-04T14:58:36.811Z,22.53
2018-11-04T15:01:04.748Z,22.17
2018-11-04T15:03:31.611Z,19.97
2018-11-04T15:05:58.454Z,24.60
2018-11-04T15:08:25.314Z,22.93
2018-11-04T15:10:52.309Z,22.73
2018-11-04T15:13:19.267Z,20.00
2018-11-04T15:15:46.143Z,22.07
2018-11-04T15:18:13.078Z,22.45
2018-11-04T15:20:39.927Z,21.07
2018-11-04T15:23:06.872Z,20.93
2018-11-04T15:25:33.826Z,19.73
2018-11-04T15:28:00.759Z,19.77
2018-11-04T15:30:27.703Z,19.10
2018-11-04T15:32:54.649Z,18.17
2018-11-04T15:35:22.463Z,17.73
2018-11-04T15:37:49.406Z,19.60
2018-11-04T15:40:16.732Z,19.07
2018-11-04T15:42:43.550Z,16.70
2018-11-04T15:45:11.636Z,16.73
2018-11-04T15:47:38.761Z,16.07
2018-11-04T15:50:07.158Z,16.43
2018-11-04T15:52:33.985Z,14.23
2018-11-04T15:55:00.900Z,14.63
2018-11-04T15:57:28.498Z,15.77
2018-11-04T15:59:55.368Z,13.47
2018-11-04T16:02:22.299Z,14.10
2018-11-04T16:04:49.230Z,14.27
2018-11-04T16:07:16.323Z,14.30
2018-11-04T16:09:43.267Z,14.40
2018-11-04T16:12:10.523Z,16.67
2018-11-04T16:14:37.720Z,16.27
2018-11-04T16:17:04.595Z,16.90
2018-11-04T16:19:31.842Z,13.50
2018-11-04T16:21:59.989Z,13.20
2018-11-04T16:24:26.847Z,15.43
2018-11-04T16:26:54.845Z,13.93
2018-11-04T16:29:21.926Z,14.63
2018-11-04T16:31:48.856Z,15.30
2018-11-04T16:34:15.669Z,15.37
2018-11-04T16:36:42.570Z,13.57
2018-11-04T16:39:09.434Z,15.10
2018-11-04T16:41:36.462Z,12.33
2018-11-04T16:44:03.584Z,17.60
2018-11-04T16:46:30.504Z,17.10
2018-11-04T16:48:57.752Z,15.03
2018-11-04T16:51:25.647Z,13.03
2018-11-04T16:53:52.551Z,14.00
2018-11-04T16:56:19.520Z,14.80
2018-11-04T16:58:46.323Z,14.10
2018-11-04T17:01:13.263Z,14.33
2018-11-04T17:03:40.314Z,14.93
2018-11-04T17:06:07.270Z,12.83
2018-11-04T17:08:34.204Z,13.50
2018-11-04T17:11:01.145Z,14.23
2018-11-04T17:13:28.123Z,14.67
2018-11-04T17:15:55.074Z,13.40
2018-11-04T17:18:21.985Z,13.30
2018-11-04T17:20:48.839Z,15.93
2018-11-04T17:23:15.802Z,14.70
2018-11-04T17:25:42.787Z,14.30
2018-11-04T17:28:09.695Z,15.73
2018-11-04T17:30:37.622Z,12.87
2018-11-04T17:33:05.298Z,14.10
2018-11-04T17:35:32.095Z,12.73
2018-11-04T17:37:58.991Z,14.87
2018-11-04T17:40:25.922Z,15.13
2018-11-04T17:42:52.894Z,13.13
2018-11-04T17:45:19.873Z,17.00
2018-11-04T17:47:47.103Z,11.50
2018-11-04T17:50:16.355Z,13.10
2018-11-04T17:52:43.822Z,13.60
2018-11-04T17:55:10.791Z,12.97
2018-11-04T17:57:37.706Z,11.50
2018-11-04T18:00:05.800Z,13.93
2018-11-04T18:02:32.626Z,13.30
2018-11-04T18:04:59.798Z,11.40
2018-11-04T18:07:26.890Z,10.33
2018-11-04T18:09:53.769Z,14.73
2018-11-04T18:12:20.708Z,15.23
2018-11-04T18:14:47.646Z,13.10
2018-11-04T18:17:14.512Z,14.73
2018-11-04T18:19:41.435Z,12.80
2018-11-04T18:22:08.394Z,13.60
2018-11-04T18:24:36.243Z,17.40
2018-11-04T18:27:03.211Z,14.67
2018-11-04T18:29:30.163Z,12.67
2018-11-04T18:31:57.113Z,15.33
2018-11-04T18:34:23.947Z,12.70
2018-11-04T18:36:50.871Z,14.27
2018-11-04T18:39:17.814Z,11.83
2018-11-04T18:41:44.755Z,14.13
2018-11-04T18:44:11.645Z,14.47
2018-11-04T18:46:38.546Z,12.40
2018-11-04T18:49:05.695Z,13.57
2018-11-04T18:51:32.631Z,12.23
2018-11-04T18:53:59.479Z,14.93
2018-11-04T18:56:26.338Z,12.67
2018-11-04T18:58:53.309Z,11.97
2018-11-04T19:01:20.235Z,15.67
2018-11-04T19:03:47.162Z,14.10
2018-11-04T19:06:14.099Z,19.27
2018-11-04T19:08:40.962Z,13.70
2018-11-04T19:11:07.973Z,12.63
2018-11-04T19:13:35.298Z,18.67
2018-11-04T19:16:02.197Z,14.77
2018-11-04T19:18:29.138Z,14.68
2018-11-04T19:20:56.007Z,17.55
2018-11-04T19:23:23.143Z,14.07
2018-11-04T19:25:50.082Z,12.60
2018-11-04T19:28:17.027Z,15.17
2018-11-04T19:30:43.973Z,15.30
2018-11-04T19:33:10.815Z,12.90
2018-11-04T19:35:37.750Z,13.80
2018-11-04T19:38:04.750Z,15.87
2018-11-04T19:40:31.688Z,12.70
2018-11-04T19:42:58.680Z,12.57
2018-11-04T19:45:25.466Z,14.40
2018-11-04T19:47:52.529Z,17.93
2018-11-04T19:50:19.576Z,13.20
2018-11-04T19:52:46.473Z,14.43
2018-11-04T19:55:13.422Z,16.53
2018-11-04T19:57:40.406Z,13.10
2018-11-04T20:00:08.679Z,14.43
2018-11-04T20:02:35.578Z,17.80
2018-11-04T20:05:02.518Z,17.97
2018-11-04T20:07:29.370Z,13.70
2018-11-04T20:09:56.323Z,12.83
2018-11-04T20:12:28.955Z,16.67
2018-11-04T20:14:55.838Z,14.43
2018-11-04T20:17:22.790Z,21.13
2018-11-04T20:19:55.474Z,15.43
2018-11-04T20:22:22.402Z,16.13
2018-11-04T20:24:55.062Z,15.03
2018-11-04T20:27:21.919Z,13.87
2018-11-04T20:29:48.899Z,16.00
2018-11-04T20:32:21.590Z,16.10
2018-11-04T20:34:48.478Z,13.70
2018-11-04T20:37:15.343Z,14.53
2018-11-04T20:39:49.211Z,14.80
2018-11-04T20:42:16.093Z,13.57
2018-11-04T20:44:44.575Z,21.33
2018-11-04T20:47:11.594Z,15.50
2018-11-04T20:49:44.558Z,16.40
2018-11-04T20:52:11.426Z,14.10
2018-11-04T20:54:38.279Z,15.60
2018-11-04T20:57:11.074Z,15.53
2018-11-04T20:59:38.002Z,15.17
2018-11-04T21:02:04.958Z,17.53
2018-11-04T21:04:31.795Z,15.43
2018-11-04T21:06:58.748Z,21.03
2018-11-04T21:09:25.683Z,16.70
2018-11-04T21:11:52.544Z,17.07
2018-11-04T21:14:19.479Z,18.20
2018-11-04T21:16:46.618Z,19.40
2018-11-04T21:19:13.351Z,21.80
2018-11-04T21:21:40.269Z,19.60
2018-11-04T21:24:07.155Z,22.70
2018-11-04T21:26:34.099Z,17.37
2018-11-04T21:29:01.245Z,22.20
2018-11-04T21:31:28.037Z,19.80
2018-11-04T21:33:54.922Z,17.97
2018-11-04T21:36:23.282Z,19.50
2018-11-04T21:38:50.067Z,19.23
2018-11-04T21:41:16.995Z,18.37
2018-11-04T21:43:44.204Z,16.50
2018-11-04T21:46:10.789Z,22.50
2018-11-04T21:48:37.734Z,19.43
2018-11-04T21:51:04.708Z,19.17
2018-11-04T21:53:31.530Z,20.17
2018-11-04T21:55:58.541Z,19.87
2018-11-04T21:58:25.307Z,16.07
2018-11-04T22:00:52.242Z,19.27
2018-11-04T22:03:19.288Z,21.77
2018-11-04T22:05:46.142Z,17.03
2018-11-04T22:08:13.078Z,19.40
2018-11-04T22:10:40.153Z,18.60
2018-11-04T22:13:06.980Z,21.57
2018-11-04T22:15:33.907Z,20.27
2018-11-04T22:18:00.767Z,23.93
2018-11-04T22:20:27.697Z,21.30
2018-11-04T22:22:54.642Z,21.87
2018-11-04T22:25:21.482Z,20.27
2018-11-04T22:27:48.423Z,24.43
2018-11-04T22:30:15.287Z,19.53
2018-11-04T22:32:42.212Z,23.40
2018-11-04T22:35:10.337Z,20.60
2018-11-04T22:37:37.530Z,23.70
2018-11-04T22:40:05.559Z,22.83
2018-11-04T22:42:32.446Z,24.03
2018-11-04T22:44:59.298Z,21.93
2018-11-04T22:47:26.234Z,24.55
2018-11-04T22:49:53.187Z,23.63
2018-11-04T22:52:20.127Z,21.83
2018-11-04T22:54:46.986Z,23.00
2018-11-04T22:57:13.915Z,21.93
2018-11-04T22:59:40.862Z,24.43
2018-11-04T23:02:07.802Z,23.30
2018-11-04T23:04:40.488Z,28.07
2018-11-04T23:07:07.483Z,24.83
2018-11-04T23:09:34.382Z,26.50
2018-11-04T23:12:01.324Z,27.57
2018-11-04T23:14:28.262Z,27.43
2018-11-04T23:16:55.123Z,25.50
2018-11-04T23:19:22.054Z,26.10
2018-11-04T23:21:48.993Z,27.03
2018-11-04T23:24:15.861Z,23.17
2018-11-04T23:26:42.779Z,26.07
2018-11-04T23:29:09.728Z,25.20
2018-11-04T23:31:36.586Z,24.87
2018-11-04T23:34:03.686Z,26.47
2018-11-04T23:36:30.575Z,23.30
2018-11-04T23:38:57.512Z,26.87
2018-11-04T23:41:24.444Z,23.75
2018-11-04T23:43:51.306Z,24.47
2018-11-04T23:46:18.238Z,27.53
2018-11-04T23:48:45.290Z,27.13
2018-11-04T23:51:12.227Z,25.17
2018-11-04T23:53:39.086Z,22.53
2018-11-04T23:56:06.010Z,23.17
2018-11-04T23:58:32.874Z,22.60
